Time;durP1;ratioP1;P1;durP2;ratioP2;P2;SDS_P1;SDS_P2;PMS_P1;PMS_P2;Temp;Humidity;BMP_temperature;BMP_pressure;BME280_temperature;BME280_humidity;BME280_pressure;Samples;Min_cycle;Max_cycle;Signal;HPM_P1;HPM_P2
2022/08/19 00:00:13;;;;;;;;;;;20.00;99.90;;;;;;5007866;28;19936;-81
2022/08/19 00:02:41;;;;;;;;;;;20.10;99.90;;;;;;5028888;28;19925;-80
2022/08/19 00:05:17;;;;;;;;;;;20.10;99.90;;;;;;5024505;28;19925;-81
2022/08/19 00:07:45;;;;;;;;;;;20.10;99.90;;;;;;5024138;28;19932;-79
2022/08/19 00:10:15;;;;;;;;;;;20.20;99.90;;;;;;5004761;28;19957;-79
2022/08/19 00:12:42;;;;;;;;;;;20.20;99.90;;;;;;5024588;28;19929;-80
2022/08/19 00:15:15;;;;;;;;;;;20.20;99.90;;;;;;5023932;28;19929;-80
2022/08/19 00:17:44;;;;;;;;;;;21.60;99.90;;;;;;5024131;28;19929;-80
2022/08/19 00:20:13;;;;;;;;;;;20.20;99.90;;;;;;5005119;28;19935;-80
2022/08/19 00:22:42;;;;;;;;;;;20.20;99.90;;;;;;5023145;28;20402;-81
2022/08/19 00:25:10;;;;;;;;;;;20.20;99.90;;;;;;5024270;28;19929;-80
2022/08/19 00:27:38;;;;;;;;;;;20.20;99.90;;;;;;5004930;28;19971;-81
2022/08/19 00:30:07;;;;;;;;;;;20.20;99.90;;;;;;5011603;28;19943;-81
2022/08/19 00:32:34;;;;;;;;;;;19.90;99.90;;;;;;5013204;28;20264;-80
2022/08/19 00:35:02;;;;;;;;;;;20.20;99.90;;;;;;5046061;28;19935;-81
2022/08/19 00:37:32;;;;;;;;;;;20.20;99.90;;;;;;5013560;28;19928;-79
2022/08/19 00:40:02;;;;;;;;;;;20.30;99.90;;;;;;5027915;28;19925;-81
2022/08/19 00:42:30;;;;;;;;;;;20.30;99.90;;;;;;5054541;28;20390;-80
2022/08/19 00:44:58;;;;;;;;;;;20.30;99.90;;;;;;5048248;28;19946;-80
2022/08/19 00:47:26;;;;;;;;;;;20.30;99.90;;;;;;5046309;28;19925;-81
2022/08/19 00:49:56;;;;;;;;;;;18.20;99.90;;;;;;5044428;28;19925;-81
2022/08/19 00:52:29;;;;;;;;;;;20.20;99.90;;;;;;5029776;28;19936;-79
2022/08/19 00:54:58;;;;;;;;;;;20.30;99.90;;;;;;5037650;28;19925;-81
2022/08/19 00:57:32;;;;;;;;;;;20.30;99.90;;;;;;5051335;28;20184;-80
2022/08/19 01:00:02;;;;;;;;;;;20.30;99.90;;;;;;5026467;28;20114;-80
2022/08/19 01:02:32;;;;;;;;;;;20.30;99.90;;;;;;5014715;28;19926;-81
2022/08/19 01:05:02;;;;;;;;;;;20.50;99.90;;;;;;5031107;28;19945;-80
2022/08/19 01:07:31;;;;;;;;;;;20.30;99.90;;;;;;5028320;28;19931;-81
2022/08/19 01:10:06;;;;;;;;;;;20.30;99.90;;;;;;5035901;28;19925;-80
2022/08/19 01:12:34;;;;;;;;;;;20.20;99.90;;;;;;5051184;28;19925;-80
2022/08/19 01:15:03;;;;;;;;;;;20.20;99.90;;;;;;5043574;28;19932;-79
2022/08/19 01:17:31;;;;;;;;;;;20.20;99.90;;;;;;5008301;28;19926;-80
2022/08/19 01:19:59;;;;;;;;;;;20.10;99.90;;;;;;5028316;28;19928;-79
2022/08/19 01:22:30;;;;;;;;;;;20.10;99.90;;;;;;5009332;28;19926;-80
2022/08/19 01:25:01;;;;;;;;;;;20.10;99.90;;;;;;5026174;28;19932;-81
2022/08/19 01:27:40;;;;;;;;;;;20.10;99.90;;;;;;5029629;28;19925;-80
2022/08/19 01:30:16;;;;;;;;;;;20.10;99.90;;;;;;5006870;28;19945;-81
2022/08/19 01:32:45;;;;;;;;;;;20.10;99.90;;;;;;5020895;28;19935;-81
2022/08/19 01:35:16;;;;;;;;;;;20.00;99.90;;;;;;5036785;28;19936;-80
2022/08/19 01:37:45;;;;;;;;;;;20.30;99.90;;;;;;5037235;28;20350;-79
2022/08/19 01:40:15;;;;;;;;;;;20.20;99.90;;;;;;5009436;28;20399;-80
2022/08/19 01:42:42;;;;;;;;;;;20.10;99.90;;;;;;5006577;28;20749;-80
2022/08/19 01:45:10;;;;;;;;;;;20.40;99.90;;;;;;5025221;28;20418;-81
2022/08/19 01:47:39;;;;;;;;;;;22.00;99.90;;;;;;5009577;28;19933;-80
2022/08/19 01:50:08;;;;;;;;;;;20.10;99.90;;;;;;5024155;28;19936;-80
2022/08/19 01:52:37;;;;;;;;;;;20.20;99.90;;;;;;5045105;28;19947;-80
2022/08/19 01:55:06;;;;;;;;;;;20.20;99.90;;;;;;5028498;28;20302;-80
2022/08/19 01:57:34;;;;;;;;;;;20.10;99.90;;;;;;5028677;28;20502;-79
2022/08/19 02:00:05;;;;;;;;;;;20.20;99.90;;;;;;5028351;28;19925;-81
2022/08/19 02:02:39;;;;;;;;;;;20.20;99.90;;;;;;5027879;28;19931;-81
2022/08/19 02:05:11;;;;;;;;;;;20.20;99.90;;;;;;5030695;28;19926;-81
2022/08/19 02:07:40;;;;;;;;;;;22.00;99.90;;;;;;5024539;28;19925;-80
2022/08/19 02:10:11;;;;;;;;;;;20.20;99.90;;;;;;5030585;28;19935;-80
2022/08/19 02:12:43;;;;;;;;;;;20.20;99.90;;;;;;5030854;28;19935;-81
2022/08/19 02:15:12;;;;;;;;;;;20.20;99.90;;;;;;5028944;28;19925;-81
2022/08/19 02:17:40;;;;;;;;;;;20.20;99.90;;;;;;5027835;28;19925;-81
2022/08/19 02:20:08;;;;;;;;;;;20.20;99.90;;;;;;5027514;28;19929;-81
2022/08/19 02:22:37;;;;;;;;;;;20.20;99.90;;;;;;5008224;28;19926;-81
2022/08/19 02:25:05;;;;;;;;;;;20.30;99.90;;;;;;5043317;28;19932;-80
2022/08/19 02:27:33;;;;;;;;;;;20.20;99.90;;;;;;5045326;28;19929;-81
2022/08/19 02:30:03;;;;;;;;;;;18.40;99.90;;;;;;5059369;28;19933;-80
2022/08/19 02:32:33;;;;;;;;;;;20.20;99.90;;;;;;5025200;28;19926;-81
2022/08/19 02:35:11;;;;;;;;;;;20.20;99.90;;;;;;5027766;28;20298;-81
2022/08/19 02:40:27;;;;;;;;;;;20.40;99.90;;;;;;5031087;28;19940;-81
2022/08/19 02:42:54;;;;;;;;;;;20.20;99.90;;;;;;5053389;28;19925;-81
2022/08/19 02:45:22;;;;;;;;;;;20.20;99.90;;;;;;5035569;28;19925;-81
2022/08/19 02:47:50;;;;;;;;;;;20.20;99.90;;;;;;5024834;28;19925;-80
2022/08/19 02:50:18;;;;;;;;;;;20.20;99.90;;;;;;5015662;28;19936;-80
2022/08/19 02:52:46;;;;;;;;;;;20.30;99.90;;;;;;5028011;28;19932;-80
2022/08/19 02:55:14;;;;;;;;;;;20.30;99.90;;;;;;5011339;28;19929;-80
2022/08/19 02:57:42;;;;;;;;;;;20.30;99.90;;;;;;5008395;28;20007;-80
2022/08/19 03:00:13;;;;;;;;;;;20.30;99.90;;;;;;5024920;28;19937;-80
2022/08/19 03:02:41;;;;;;;;;;;20.30;99.90;;;;;;5010538;28;20007;-81
2022/08/19 03:05:10;;;;;;;;;;;20.40;99.90;;;;;;5024861;28;19929;-80
2022/08/19 03:07:37;;;;;;;;;;;20.60;99.90;;;;;;5024205;28;19926;-80
2022/08/19 03:10:06;;;;;;;;;;;20.40;99.90;;;;;;5023917;28;19932;-81
2022/08/19 03:12:37;;;;;;;;;;;20.70;99.90;;;;;;5013339;28;19929;-80
2022/08/19 03:15:07;;;;;;;;;;;20.00;99.90;;;;;;5025321;28;19932;-81
2022/08/19 03:17:35;;;;;;;;;;;20.40;99.90;;;;;;5004495;28;19926;-81
2022/08/19 03:20:03;;;;;;;;;;;20.50;99.90;;;;;;5024427;28;19936;-80
2022/08/19 03:22:32;;;;;;;;;;;20.50;99.90;;;;;;5013845;28;19925;-80
2022/08/19 03:25:01;;;;;;;;;;;20.50;99.90;;;;;;5024765;28;19930;-81
2022/08/19 03:27:29;;;;;;;;;;;20.50;99.90;;;;;;5032252;28;19925;-80
2022/08/19 03:30:02;;;;;;;;;;;20.40;99.90;;;;;;5027923;28;19929;-81
2022/08/19 03:32:33;;;;;;;;;;;20.50;99.90;;;;;;5034257;28;19925;-80
2022/08/19 03:35:02;;;;;;;;;;;20.50;99.90;;;;;;5025948;28;19925;-81
2022/08/19 03:37:30;;;;;;;;;;;20.40;99.90;;;;;;5032818;28;19929;-79
2022/08/19 03:39:57;;;;;;;;;;;20.40;99.90;;;;;;5023185;28;19933;-81
2022/08/19 03:42:26;;;;;;;;;;;20.40;99.90;;;;;;5024220;28;19926;-79
2022/08/19 03:45:14;;;;;;;;;;;20.40;99.90;;;;;;5007525;28;19944;-79
2022/08/19 03:47:42;;;;;;;;;;;20.40;99.90;;;;;;5039950;28;19936;-80
2022/08/19 03:50:10;;;;;;;;;;;20.10;99.90;;;;;;5005799;28;19926;-79
2022/08/19 03:52:40;;;;;;;;;;;20.40;99.90;;;;;;5024411;28;19926;-80
2022/08/19 03:55:13;;;;;;;;;;;20.40;99.90;;;;;;5009827;28;19932;-80
2022/08/19 03:57:42;;;;;;;;;;;20.40;99.90;;;;;;5007706;28;19932;-79
2022/08/19 04:00:11;;;;;;;;;;;20.40;99.90;;;;;;5003801;28;19940;-79
2022/08/19 04:02:43;;;;;;;;;;;20.30;99.90;;;;;;5022471;28;19933;-81
2022/08/19 04:05:28;;;;;;;;;;;20.50;99.90;;;;;;5024427;28;20005;-79
2022/08/19 04:07:58;;;;;;;;;;;20.10;99.90;;;;;;5023407;28;19926;-82
2022/08/19 04:10:28;;;;;;;;;;;20.10;99.90;;;;;;5023050;28;19932;-80
2022/08/19 04:12:55;;;;;;;;;;;20.10;99.90;;;;;;5011957;28;19944;-79
2022/08/19 04:15:23;;;;;;;;;;;20.10;99.90;;;;;;4990335;28;19937;-79
2022/08/19 04:17:55;;;;;;;;;;;18.70;99.90;;;;;;5025847;28;19937;-80
2022/08/19 04:20:23;;;;;;;;;;;20.00;99.90;;;;;;5006215;28;19948;-79
2022/08/19 04:22:56;;;;;;;;;;;20.10;99.90;;;;;;5017781;28;19925;-81
2022/08/19 04:25:27;;;;;;;;;;;20.10;99.90;;;;;;5004765;28;19926;-80
2022/08/19 04:28:00;;;;;;;;;;;20.10;99.90;;;;;;5012613;28;19996;-82
2022/08/19 04:30:37;;;;;;;;;;;20.00;99.90;;;;;;5015559;28;19940;-79
2022/08/19 04:33:10;;;;;;;;;;;20.00;99.90;;;;;;5027342;28;19925;-81
2022/08/19 04:35:39;;;;;;;;;;;20.10;99.90;;;;;;5031309;28;19932;-81
2022/08/19 04:38:07;;;;;;;;;;;20.10;99.90;;;;;;5028325;28;19944;-81
2022/08/19 04:43:29;;;;;;;;;;;20.10;99.90;;;;;;5022831;28;19929;-80
2022/08/19 04:45:57;;;;;;;;;;;20.10;99.90;;;;;;5027449;28;19939;-80
2022/08/19 04:48:27;;;;;;;;;;;20.20;99.90;;;;;;5020999;28;19937;-79
2022/08/19 04:50:57;;;;;;;;;;;19.70;99.90;;;;;;5022586;28;19939;-80
2022/08/19 04:53:26;;;;;;;;;;;20.10;99.90;;;;;;5047661;28;19925;-80
2022/08/19 04:55:56;;;;;;;;;;;20.10;99.90;;;;;;5026622;28;19929;-81
2022/08/19 04:58:25;;;;;;;;;;;20.10;99.90;;;;;;4988095;28;19929;-80
2022/08/19 05:00:53;;;;;;;;;;;20.10;99.90;;;;;;5019626;28;19941;-80
2022/08/19 05:03:21;;;;;;;;;;;20.00;99.90;;;;;;5022577;28;19937;-79
2022/08/19 05:05:55;;;;;;;;;;;20.10;99.90;;;;;;5006385;28;19933;-78
2022/08/19 05:08:23;;;;;;;;;;;20.10;99.90;;;;;;5023931;28;19925;-79
2022/08/19 05:10:59;;;;;;;;;;;20.00;99.90;;;;;;5041734;28;19925;-79
2022/08/19 05:13:27;;;;;;;;;;;19.60;99.90;;;;;;5041337;28;19929;-80
2022/08/19 05:15:56;;;;;;;;;;;20.00;99.90;;;;;;5023562;28;19932;-80
2022/08/19 05:24:01;;;;;;;;;;;19.90;99.90;;;;;;5044871;28;19925;-79
2022/08/19 05:26:29;;;;;;;;;;;19.90;99.90;;;;;;5045112;28;19929;-79
2022/08/19 05:28:59;;;;;;;;;;;19.90;99.90;;;;;;5045073;28;19925;-79
2022/08/19 05:31:29;;;;;;;;;;;19.90;99.90;;;;;;5027275;28;19932;-78
2022/08/19 05:33:58;;;;;;;;;;;19.90;99.90;;;;;;5026913;28;19943;-82
2022/08/19 05:36:26;;;;;;;;;;;20.00;99.90;;;;;;5015050;28;20029;-82
2022/08/19 05:38:55;;;;;;;;;;;19.90;99.90;;;;;;5012046;28;19929;-81
2022/08/19 05:41:29;;;;;;;;;;;19.90;99.90;;;;;;5005430;28;19930;-80
2022/08/19 05:43:57;;;;;;;;;;;19.90;99.90;;;;;;5033841;28;19924;-83
2022/08/19 05:46:26;;;;;;;;;;;19.80;99.90;;;;;;5015778;28;19929;-81
2022/08/19 05:48:57;;;;;;;;;;;19.90;99.90;;;;;;5032203;28;19926;-80
2022/08/19 05:51:25;;;;;;;;;;;19.90;99.90;;;;;;5009254;28;19933;-80
2022/08/19 05:53:56;;;;;;;;;;;19.80;99.90;;;;;;5024652;28;19932;-81
2022/08/19 05:56:24;;;;;;;;;;;20.70;99.90;;;;;;5024502;28;19940;-80
2022/08/19 05:58:53;;;;;;;;;;;19.90;99.90;;;;;;5023759;28;19933;-80
2022/08/19 06:01:21;;;;;;;;;;;19.90;99.90;;;;;;5040739;28;19937;-80
2022/08/19 06:03:49;;;;;;;;;;;19.90;99.90;;;;;;5021861;28;19930;-81
2022/08/19 06:06:18;;;;;;;;;;;20.00;99.90;;;;;;5025347;28;19936;-80
2022/08/19 06:08:50;;;;;;;;;;;20.00;99.90;;;;;;5020750;28;19996;-80
2022/08/19 06:11:20;;;;;;;;;;;20.00;99.90;;;;;;5025274;28;19929;-82
2022/08/19 06:13:53;;;;;;;;;;;20.30;99.90;;;;;;5024371;28;19937;-80
2022/08/19 06:16:27;;;;;;;;;;;20.00;99.90;;;;;;5016538;28;19926;-81
2022/08/19 06:18:56;;;;;;;;;;;19.80;99.90;;;;;;5018715;28;19926;-80
2022/08/19 06:21:27;;;;;;;;;;;20.20;99.90;;;;;;5022683;28;19926;-80
2022/08/19 06:23:56;;;;;;;;;;;20.10;99.90;;;;;;4998802;28;19939;-81
2022/08/19 06:26:24;;;;;;;;;;;20.10;99.90;;;;;;5025965;28;20247;-81
2022/08/19 06:28:52;;;;;;;;;;;20.20;99.90;;;;;;5025292;28;20330;-82
2022/08/19 06:31:24;;;;;;;;;;;20.20;99.90;;;;;;5006973;28;19925;-81
2022/08/19 06:33:52;;;;;;;;;;;21.80;99.90;;;;;;5022476;28;19926;-81
2022/08/19 06:36:31;;;;;;;;;;;20.20;99.90;;;;;;5023046;28;19929;-79
2022/08/19 06:39:10;;;;;;;;;;;20.50;99.90;;;;;;5019726;28;19937;-80
2022/08/19 06:41:39;;;;;;;;;;;20.20;99.90;;;;;;5004212;28;19949;-78
2022/08/19 06:44:18;;;;;;;;;;;20.20;99.90;;;;;;5021372;28;19933;-77
2022/08/19 06:46:47;;;;;;;;;;;20.20;99.90;;;;;;5002640;28;19926;-77
2022/08/19 06:49:22;;;;;;;;;;;20.20;99.90;;;;;;5019462;28;19929;-79
2022/08/19 06:51:50;;;;;;;;;;;20.20;99.90;;;;;;5005405;28;19950;-78
2022/08/19 06:54:18;;;;;;;;;;;20.30;99.90;;;;;;5018766;28;19936;-78
2022/08/19 06:56:47;;;;;;;;;;;20.30;99.90;;;;;;5023356;28;20626;-79
2022/08/19 06:59:19;;;;;;;;;;;20.30;99.90;;;;;;5035391;28;19933;-79
2022/08/19 07:01:51;;;;;;;;;;;20.30;99.90;;;;;;5026200;28;19956;-78
2022/08/19 07:04:20;;;;;;;;;;;20.20;99.90;;;;;;5022290;28;19929;-79
2022/08/19 07:06:49;;;;;;;;;;;20.20;99.90;;;;;;5016743;28;19936;-79
2022/08/19 07:09:22;;;;;;;;;;;20.20;99.90;;;;;;5004250;28;19925;-78
2022/08/19 07:11:52;;;;;;;;;;;20.20;99.90;;;;;;5025665;28;20035;-78
2022/08/19 07:14:25;;;;;;;;;;;20.30;99.90;;;;;;5026378;28;19929;-79
2022/08/19 07:16:54;;;;;;;;;;;20.30;99.90;;;;;;5041269;28;19940;-78
2022/08/19 07:19:24;;;;;;;;;;;20.30;99.90;;;;;;5007391;28;19929;-77
2022/08/19 07:21:53;;;;;;;;;;;20.30;99.90;;;;;;5028429;28;19925;-78
2022/08/19 07:24:23;;;;;;;;;;;20.30;99.90;;;;;;5023582;28;19929;-77
2022/08/19 07:26:52;;;;;;;;;;;19.30;99.90;;;;;;5021472;28;19925;-78
2022/08/19 07:29:22;;;;;;;;;;;20.30;99.90;;;;;;5022113;28;19926;-79
2022/08/19 07:31:55;;;;;;;;;;;20.40;99.90;;;;;;5021143;28;19941;-79
2022/08/19 07:34:25;;;;;;;;;;;20.40;99.90;;;;;;5021705;28;19925;-79
2022/08/19 07:36:53;;;;;;;;;;;20.10;99.90;;;;;;5045674;23;19925;-90
2022/08/19 07:39:23;;;;;;;;;;;20.40;99.90;;;;;;5060600;28;19932;-91
2022/08/19 07:41:59;;;;;;;;;;;20.60;99.90;;;;;;5052862;28;20602;-92
2022/08/19 07:44:27;;;;;;;;;;;20.40;99.90;;;;;;5051793;28;19925;-91
2022/08/19 07:46:57;;;;;;;;;;;20.40;99.90;;;;;;5043552;28;19951;-92
2022/08/19 07:49:28;;;;;;;;;;;20.40;99.90;;;;;;5044559;28;19924;-91
2022/08/19 07:52:03;;;;;;;;;;;20.50;99.90;;;;;;5046589;28;19925;-90
2022/08/19 07:54:35;;;;;;;;;;;20.50;99.90;;;;;;5029928;28;19936;-92
2022/08/19 07:57:10;;;;;;;;;;;20.60;99.90;;;;;;5059482;28;20389;-91
2022/08/19 07:59:38;;;;;;;;;;;20.70;99.90;;;;;;5067908;28;19924;-92
2022/08/19 08:02:07;;;;;;;;;;;20.80;99.90;;;;;;5029644;28;19925;-89
2022/08/19 08:10:13;;;;;;;;;;;21.10;99.90;;;;;;5068888;28;19925;-87
2022/08/19 08:12:48;;;;;;;;;;;21.10;99.90;;;;;;5065785;28;19925;-91
2022/08/19 08:15:39;;;;;;;;;;;21.10;99.90;;;;;;5032961;28;19928;-90
2022/08/19 08:18:10;;;;;;;;;;;21.10;99.90;;;;;;5050006;28;19939;-89
2022/08/19 08:20:39;;;;;;;;;;;21.10;99.90;;;;;;5027709;28;19932;-88
2022/08/19 08:23:22;;;;;;;;;;;21.10;99.90;;;;;;5075656;28;19924;-91
2022/08/19 08:25:52;;;;;;;;;;;21.20;99.90;;;;;;5046468;23;19933;-81
2022/08/19 08:28:20;;;;;;;;;;;21.20;99.90;;;;;;5042477;28;19933;-76
2022/08/19 08:30:50;;;;;;;;;;;21.20;99.90;;;;;;5058065;28;19929;-77
2022/08/19 08:33:23;;;;;;;;;;;21.30;99.90;;;;;;5035992;28;19933;-78
2022/08/19 08:36:07;;;;;;;;;;;21.30;99.90;;;;;;5039721;28;19925;-78
2022/08/19 08:38:36;;;;;;;;;;;21.40;99.90;;;;;;5046053;28;19944;-78
2022/08/19 08:41:21;;;;;;;;;;;21.40;99.90;;;;;;5050010;28;20346;-77
2022/08/19 08:43:51;;;;;;;;;;;21.50;99.90;;;;;;5049965;28;19933;-79
2022/08/19 08:46:22;;;;;;;;;;;21.60;99.90;;;;;;5003782;28;19933;-78
2022/08/19 08:49:18;;;;;;;;;;;21.70;99.90;;;;;;5049466;28;19933;-78
2022/08/19 08:51:52;;;;;;;;;;;21.70;99.90;;;;;;5043727;28;19936;-78
2022/08/19 08:54:47;;;;;;;;;;;21.70;99.90;;;;;;5040289;28;19933;-79
2022/08/19 08:57:28;;;;;;;;;;;21.80;99.90;;;;;;5025892;28;19949;-78
2022/08/19 09:00:19;;;;;;;;;;;21.80;99.90;;;;;;5025370;28;19940;-78
2022/08/19 09:02:47;;;;;;;;;;;21.80;99.50;;;;;;5037106;28;19929;-78
2022/08/19 09:05:20;;;;;;;;;;;21.80;99.30;;;;;;5037604;28;19925;-78
2022/08/19 09:07:49;;;;;;;;;;;21.70;99.30;;;;;;5037108;28;19933;-79
2022/08/19 09:10:23;;;;;;;;;;;21.70;99.40;;;;;;5028204;28;20543;-76
2022/08/19 09:13:11;;;;;;;;;;;21.60;99.40;;;;;;5040202;28;19940;-79
2022/08/19 09:15:44;;;;;;;;;;;21.60;99.50;;;;;;5039611;28;20173;-79
2022/08/19 09:18:14;;;;;;;;;;;21.50;99.60;;;;;;5055746;28;19936;-77
2022/08/19 09:20:47;;;;;;;;;;;21.50;99.30;;;;;;5040849;28;19929;-78
2022/08/19 09:23:15;;;;;;;;;;;21.50;99.30;;;;;;5005654;28;19933;-78
2022/08/19 09:25:43;;;;;;;;;;;21.50;97.90;;;;;;5025239;28;19933;-76
2022/08/19 09:28:12;;;;;;;;;;;21.50;97.70;;;;;;5023014;28;19928;-77
2022/08/19 09:30:50;;;;;;;;;;;21.60;97.50;;;;;;5037415;28;19945;-79
2022/08/19 09:33:19;;;;;;;;;;;21.60;97.30;;;;;;5051292;28;19933;-78
2022/08/19 09:35:47;;;;;;;;;;;21.60;97.30;;;;;;5034315;28;19933;-77
2022/08/19 09:38:20;;;;;;;;;;;21.80;97.00;;;;;;5023286;28;20462;-77
2022/08/19 09:40:49;;;;;;;;;;;21.90;97.20;;;;;;5053244;28;20342;-79
2022/08/19 09:43:17;;;;;;;;;;;22.00;97.10;;;;;;5039391;28;20271;-78
2022/08/19 09:46:00;;;;;;;;;;;22.10;97.00;;;;;;5055037;28;20279;-77
2022/08/19 09:48:28;;;;;;;;;;;21.90;96.70;;;;;;5035212;28;20715;-78
2022/08/19 09:51:06;;;;;;;;;;;22.30;96.90;;;;;;5053807;28;19929;-81
2022/08/19 09:53:39;;;;;;;;;;;22.40;96.50;;;;;;5052552;28;20008;-77
2022/08/19 09:56:07;;;;;;;;;;;22.50;96.70;;;;;;5039998;28;19929;-79
2022/08/19 09:58:38;;;;;;;;;;;22.60;96.90;;;;;;5037778;28;19929;-76
2022/08/19 10:01:07;;;;;;;;;;;22.60;96.60;;;;;;5050898;28;19925;-78
2022/08/19 10:03:36;;;;;;;;;;;22.70;96.50;;;;;;5049574;28;19939;-81
2022/08/19 10:06:05;;;;;;;;;;;22.80;96.70;;;;;;5031906;28;19932;-78
2022/08/19 10:08:41;;;;;;;;;;;22.90;96.50;;;;;;5036401;28;19929;-78
2022/08/19 10:11:21;;;;;;;;;;;23.00;96.30;;;;;;5037310;28;19948;-79
2022/08/19 10:14:05;;;;;;;;;;;23.10;95.90;;;;;;5036161;28;20859;-77
2022/08/19 10:16:34;;;;;;;;;;;23.60;95.80;;;;;;5051335;28;20021;-80
2022/08/19 10:19:06;;;;;;;;;;;23.30;95.70;;;;;;5040171;28;20596;-80
2022/08/19 10:21:34;;;;;;;;;;;23.40;95.20;;;;;;5056103;28;19933;-77
2022/08/19 10:24:03;;;;;;;;;;;23.60;95.40;;;;;;5043192;28;19926;-79
2022/08/19 10:26:34;;;;;;;;;;;23.70;95.10;;;;;;5040637;28;20218;-77
2022/08/19 10:29:04;;;;;;;;;;;23.80;94.60;;;;;;5040415;28;19940;-78
2022/08/19 10:31:33;;;;;;;;;;;23.80;94.40;;;;;;5057573;28;20314;-80
2022/08/19 10:34:21;;;;;;;;;;;23.80;94.30;;;;;;5039042;28;19929;-77
2022/08/19 10:36:55;;;;;;;;;;;23.80;94.20;;;;;;5022478;28;19933;-79
2022/08/19 10:39:29;;;;;;;;;;;23.80;94.00;;;;;;5056562;28;19925;-76
2022/08/19 10:41:59;;;;;;;;;;;23.70;94.10;;;;;;5024011;28;19944;-78
2022/08/19 10:44:29;;;;;;;;;;;23.70;94.10;;;;;;5055661;28;19925;-79
2022/08/19 10:46:59;;;;;;;;;;;23.60;94.10;;;;;;5055535;28;19929;-77
2022/08/19 10:49:27;;;;;;;;;;;23.40;94.30;;;;;;5057048;28;19963;-77
2022/08/19 10:57:35;;;;;;;;;;;22.90;94.60;;;;;;5053427;28;19929;-77
2022/08/19 11:00:23;;;;;;;;;;;23.00;94.70;;;;;;5038794;28;19929;-80
2022/08/19 11:02:53;;;;;;;;;;;23.00;94.60;;;;;;5040639;28;20009;-76
2022/08/19 11:05:22;;;;;;;;;;;23.00;94.50;;;;;;5055582;28;19933;-78
2022/08/19 11:07:51;;;;;;;;;;;23.10;94.70;;;;;;5054763;28;19932;-78
2022/08/19 11:10:19;;;;;;;;;;;23.20;94.70;;;;;;5038046;28;19924;-80
2022/08/19 11:12:52;;;;;;;;;;;23.20;94.50;;;;;;5053844;28;19989;-78
2022/08/19 11:15:20;;;;;;;;;;;23.20;94.60;;;;;;5037087;28;20302;-77
2022/08/19 11:17:48;;;;;;;;;;;23.20;94.70;;;;;;5038094;28;19940;-77
2022/08/19 11:20:16;;;;;;;;;;;23.20;94.60;;;;;;5038140;28;19929;-79
2022/08/19 11:22:45;;;;;;;;;;;23.20;94.80;;;;;;5055247;28;19933;-79
2022/08/19 11:25:15;;;;;;;;;;;23.20;94.40;;;;;;5041201;28;19925;-79
2022/08/19 11:27:44;;;;;;;;;;;23.20;94.60;;;;;;5038118;28;19938;-78
2022/08/19 11:30:13;;;;;;;;;;;23.30;94.60;;;;;;5023623;28;19933;-79
2022/08/19 11:32:41;;;;;;;;;;;23.30;94.40;;;;;;5041302;28;19933;-79
2022/08/19 11:35:19;;;;;;;;;;;23.40;94.60;;;;;;5035740;28;19933;-78
2022/08/19 11:37:57;;;;;;;;;;;;;;;;;;;;;
2022/08/19 11:40:34;;;;;;;;;;;23.60;94.10;;;;;;5053706;28;20683;-78
2022/08/19 11:43:02;;;;;;;;;;;24.00;94.30;;;;;;5039100;28;20070;-79
2022/08/19 11:45:31;;;;;;;;;;;23.80;93.90;;;;;;5053022;28;20306;-79
2022/08/19 11:48:01;;;;;;;;;;;23.80;93.70;;;;;;5040281;28;19933;-79
2022/08/19 11:50:29;;;;;;;;;;;23.80;93.50;;;;;;5037404;28;19944;-80
2022/08/19 11:52:57;;;;;;;;;;;23.80;93.50;;;;;;5039308;28;20353;-80
2022/08/19 11:55:24;;;;;;;;;;;23.90;93.10;;;;;;5036549;28;19929;-81
2022/08/19 11:57:52;;;;;;;;;;;24.00;92.90;;;;;;5042128;28;19936;-77
2022/08/19 12:00:21;;;;;;;;;;;23.90;92.30;;;;;;5051666;28;19933;-81
2022/08/19 12:02:49;;;;;;;;;;;23.80;92.40;;;;;;5039853;28;19932;-81
2022/08/19 12:05:17;;;;;;;;;;;23.80;91.90;;;;;;5037611;28;19925;-79
2022/08/19 12:07:46;;;;;;;;;;;23.90;92.40;;;;;;5053723;28;19940;-80
2022/08/19 12:10:14;;;;;;;;;;;24.00;91.90;;;;;;5033741;28;19940;-80
2022/08/19 12:12:46;;;;;;;;;;;24.10;91.80;;;;;;5036158;28;20272;-80
2022/08/19 12:15:27;;;;;;;;;;;24.20;91.50;;;;;;5051495;28;20329;-78
2022/08/19 12:18:04;;;;;;;;;;;22.30;89.40;;;;;;5053831;28;19934;-77
2022/08/19 12:20:36;;;;;;;;;;;24.40;90.10;;;;;;5038143;28;19925;-80
2022/08/19 12:23:06;;;;;;;;;;;24.50;88.40;;;;;;5042878;28;21131;-77
2022/08/19 12:25:49;;;;;;;;;;;24.60;88.30;;;;;;5039051;28;19943;-79
2022/08/19 12:28:22;;;;;;;;;;;24.60;87.60;;;;;;5055170;28;19929;-79
2022/08/19 12:30:51;;;;;;;;;;;24.50;85.00;;;;;;5055491;28;19925;-79
2022/08/19 12:33:23;;;;;;;;;;;24.70;86.20;;;;;;5042179;28;19929;-80
2022/08/19 12:36:01;;;;;;;;;;;24.70;85.70;;;;;;5036851;28;19933;-78
2022/08/19 12:38:39;;;;;;;;;;;24.70;85.70;;;;;;5039813;28;19929;-78
2022/08/19 12:41:08;;;;;;;;;;;24.70;85.10;;;;;;5022874;28;19936;-78
2022/08/19 12:43:37;;;;;;;;;;;24.70;84.60;;;;;;5038211;28;19943;-79
2022/08/19 12:46:05;;;;;;;;;;;24.60;84.00;;;;;;5035629;28;19929;-79
2022/08/19 12:48:37;;;;;;;;;;;24.70;84.70;;;;;;5024799;28;19935;-79
2022/08/19 12:51:07;;;;;;;;;;;24.30;84.00;;;;;;5058667;28;19932;-78
2022/08/19 12:53:35;;;;;;;;;;;24.20;83.90;;;;;;5040755;28;20591;-79
2022/08/19 12:56:07;;;;;;;;;;;24.10;84.30;;;;;;5053753;28;19933;-80
2022/08/19 12:58:41;;;;;;;;;;;24.10;82.80;;;;;;5037859;28;19925;-77
2022/08/19 13:01:17;;;;;;;;;;;24.10;82.90;;;;;;5036011;28;19940;-78
2022/08/19 13:03:52;;;;;;;;;;;24.20;82.90;;;;;;5040946;28;20851;-79
2022/08/19 13:06:21;;;;;;;;;;;24.30;82.10;;;;;;5040934;28;19925;-79
2022/08/19 13:08:49;;;;;;;;;;;24.60;80.80;;;;;;5039080;28;19929;-78
2022/08/19 13:11:20;;;;;;;;;;;24.60;80.70;;;;;;5038183;28;19932;-79
2022/08/19 13:13:50;;;;;;;;;;;24.70;80.10;;;;;;5040350;28;19933;-79
2022/08/19 13:16:19;;;;;;;;;;;24.90;79.00;;;;;;5039557;28;19925;-80
2022/08/19 13:18:49;;;;;;;;;;;25.10;78.70;;;;;;5039372;28;19943;-77
2022/08/19 13:21:19;;;;;;;;;;;25.30;78.70;;;;;;5040600;28;19933;-78
2022/08/19 13:23:50;;;;;;;;;;;25.80;78.00;;;;;;5052579;28;19929;-78
2022/08/19 13:26:19;;;;;;;;;;;25.70;76.00;;;;;;5042003;28;19941;-80
2022/08/19 13:34:33;;;;;;;;;;;26.30;75.60;;;;;;5037474;28;19925;-78
2022/08/19 13:37:02;;;;;;;;;;;26.60;74.90;;;;;;5035913;28;19929;-81
2022/08/19 13:39:32;;;;;;;;;;;26.80;74.30;;;;;;5041297;28;19932;-80
2022/08/19 13:42:01;;;;;;;;;;;26.70;72.70;;;;;;5028219;28;19936;-77
2022/08/19 13:44:30;;;;;;;;;;;26.60;73.90;;;;;;5011618;28;19925;-80
2022/08/19 13:47:06;;;;;;;;;;;26.60;73.50;;;;;;5061604;28;19932;-79
2022/08/19 13:49:36;;;;;;;;;;;26.60;73.50;;;;;;5056055;28;19959;-76
2022/08/19 13:52:04;;;;;;;;;;;26.40;73.30;;;;;;5042911;28;19929;-78
2022/08/19 13:54:33;;;;;;;;;;;26.90;73.60;;;;;;5041178;28;20447;-80
2022/08/19 13:57:03;;;;;;;;;;;27.30;73.60;;;;;;5029370;28;19929;-79
2022/08/19 13:59:36;;;;;;;;;;;26.90;72.60;;;;;;5057577;28;20222;-79
2022/08/19 14:02:05;;;;;;;;;;;27.10;72.00;;;;;;5060751;28;19929;-79
2022/08/19 14:04:33;;;;;;;;;;;27.20;72.00;;;;;;5038369;28;19932;-80
2022/08/19 14:07:01;;;;;;;;;;;27.80;71.60;;;;;;5047648;28;19939;-79
2022/08/19 14:09:30;;;;;;;;;;;27.80;71.40;;;;;;5067171;28;19928;-78
2022/08/19 14:11:57;;;;;;;;;;;28.00;70.90;;;;;;5038081;28;19925;-78
2022/08/19 14:14:25;;;;;;;;;;;29.00;70.40;;;;;;5049691;28;19935;-80
2022/08/19 14:16:55;;;;;;;;;;;28.50;70.00;;;;;;5046358;28;19933;-79
2022/08/19 14:19:23;;;;;;;;;;;28.70;69.60;;;;;;5062726;28;19925;-78
2022/08/19 14:21:57;;;;;;;;;;;29.00;68.70;;;;;;5035306;28;19940;-80
2022/08/19 14:24:37;;;;;;;;;;;29.10;67.30;;;;;;5024967;28;19951;-80
2022/08/19 14:27:06;;;;;;;;;;;29.40;65.70;;;;;;5042605;28;19944;-79
2022/08/19 14:29:34;;;;;;;;;;;29.20;65.70;;;;;;5042984;28;19940;-78
2022/08/19 14:32:02;;;;;;;;;;;29.10;65.40;;;;;;5042627;28;19929;-79
2022/08/19 14:34:31;;;;;;;;;;;29.20;64.30;;;;;;5024332;28;19939;-79
2022/08/19 14:37:03;;;;;;;;;;;28.90;63.30;;;;;;5043968;28;19948;-80
2022/08/19 14:39:32;;;;;;;;;;;29.20;63.70;;;;;;5044072;28;20407;-78
2022/08/19 14:41:59;;;;;;;;;;;29.30;63.80;;;;;;5061392;28;19940;-79
2022/08/19 14:44:28;;;;;;;;;;;29.40;62.80;;;;;;5044713;28;19936;-79
2022/08/19 14:47:00;;;;;;;;;;;29.60;62.40;;;;;;5036452;28;19939;-79
2022/08/19 14:49:30;;;;;;;;;;;29.60;61.40;;;;;;5058844;28;19933;-78
2022/08/19 14:52:11;;;;;;;;;;;29.80;60.80;;;;;;5044849;28;19925;-79
2022/08/19 14:54:44;;;;;;;;;;;29.90;60.50;;;;;;5047310;28;19925;-78
2022/08/19 14:57:14;;;;;;;;;;;30.00;59.30;;;;;;5061088;28;19929;-79
2022/08/19 14:59:43;;;;;;;;;;;30.00;59.50;;;;;;5045284;28;19925;-79
2022/08/19 15:02:14;;;;;;;;;;;29.90;57.70;;;;;;5041023;28;19936;-80
2022/08/19 15:05:02;;;;;;;;;;;30.10;57.40;;;;;;5053970;28;19925;-81
2022/08/19 15:07:31;;;;;;;;;;;30.50;58.00;;;;;;5057147;28;19925;-80